sensor_id;sensor_type;location;lat;lon;timestamp;P1;durP1;ratioP1;P2;durP2;ratioP2
20298;SDS011;10308;42.688;23.256;2024-03-22T00:02:23;27.95;;;18.35;;
20298;SDS011;10308;42.688;23.256;2024-03-22T00:04:53;27.80;;;17.85;;
20298;SDS011;10308;42.688;23.256;2024-03-22T00:07:19;25.90;;;17.10;;
20298;SDS011;10308;42.688;23.256;2024-03-22T00:09:46;20.33;;;13.77;;
20298;SDS011;10308;42.688;23.256;2024-03-22T00:12:12;17.42;;;12.70;;
20298;SDS011;10308;42.688;23.256;2024-03-22T00:14:39;14.10;;;10.40;;
20298;SDS011;10308;42.688;23.256;2024-03-22T00:17:05;12.93;;;9.93;;
20298;SDS011;10308;42.688;23.256;2024-03-22T00:19:34;14.30;;;10.88;;
20298;SDS011;10308;42.688;23.256;2024-03-22T00:22:00;12.52;;;10.52;;
20298;SDS011;10308;42.688;23.256;2024-03-22T00:24:27;11.98;;;10.48;;
20298;SDS011;10308;42.688;23.256;2024-03-22T00:26:53;13.38;;;10.77;;
20298;SDS011;10308;42.688;23.256;2024-03-22T00:29:20;15.73;;;11.75;;
20298;SDS011;10308;42.688;23.256;2024-03-22T00:31:46;19.95;;;14.90;;
20298;SDS011;10308;42.688;23.256;2024-03-22T00:34:13;21.70;;;14.68;;
20298;SDS011;10308;42.688;23.256;2024-03-22T00:36:41;23.80;;;15.43;;
20298;SDS011;10308;42.688;23.256;2024-03-22T00:39:09;21.85;;;15.05;;
20298;SDS011;10308;42.688;23.256;2024-03-22T00:41:36;18.63;;;15.23;;
20298;SDS011;10308;42.688;23.256;2024-03-22T00:44:03;18.95;;;14.27;;
20298;SDS011;10308;42.688;23.256;2024-03-22T00:46:29;18.58;;;13.35;;
20298;SDS011;10308;42.688;23.256;2024-03-22T00:48:57;18.48;;;13.45;;
20298;SDS011;10308;42.688;23.256;2024-03-22T00:51:25;15.18;;;11.80;;
20298;SDS011;10308;42.688;23.256;2024-03-22T00:53:54;14.15;;;11.48;;
20298;SDS011;10308;42.688;23.256;2024-03-22T00:56:20;11.10;;;9.48;;
20298;SDS011;10308;42.688;23.256;2024-03-22T00:58:47;10.95;;;8.05;;
20298;SDS011;10308;42.688;23.256;2024-03-22T01:01:13;8.80;;;7.77;;
20298;SDS011;10308;42.688;23.256;2024-03-22T01:03:40;8.52;;;7.70;;
20298;SDS011;10308;42.688;23.256;2024-03-22T01:06:06;9.90;;;7.68;;
20298;SDS011;10308;42.688;23.256;2024-03-22T01:08:33;10.82;;;9.05;;
20298;SDS011;10308;42.688;23.256;2024-03-22T01:11:01;12.65;;;10.07;;
20298;SDS011;10308;42.688;23.256;2024-03-22T01:13:28;11.88;;;9.50;;
20298;SDS011;10308;42.688;23.256;2024-03-22T01:15:53;10.68;;;9.00;;
20298;SDS011;10308;42.688;23.256;2024-03-22T01:18:21;13.18;;;10.80;;
20298;SDS011;10308;42.688;23.256;2024-03-22T01:20:48;12.18;;;10.27;;
20298;SDS011;10308;42.688;23.256;2024-03-22T01:23:14;10.50;;;8.85;;
20298;SDS011;10308;42.688;23.256;2024-03-22T01:25:40;9.68;;;8.68;;
20298;SDS011;10308;42.688;23.256;2024-03-22T01:28:09;15.43;;;11.55;;
20298;SDS011;10308;42.688;23.256;2024-03-22T01:30:35;14.65;;;12.05;;
20298;SDS011;10308;42.688;23.256;2024-03-22T01:33:02;13.32;;;11.30;;
20298;SDS011;10308;42.688;23.256;2024-03-22T01:35:28;14.48;;;11.15;;
20298;SDS011;10308;42.688;23.256;2024-03-22T01:37:55;13.45;;;10.40;;
20298;SDS011;10308;42.688;23.256;2024-03-22T01:40:21;12.25;;;11.05;;
20298;SDS011;10308;42.688;23.256;2024-03-22T01:42:52;12.13;;;10.75;;
20298;SDS011;10308;42.688;23.256;2024-03-22T01:45:20;13.15;;;10.52;;
20298;SDS011;10308;42.688;23.256;2024-03-22T01:47:51;11.50;;;10.10;;
20298;SDS011;10308;42.688;23.256;2024-03-22T01:50:17;12.25;;;10.98;;
20298;SDS011;10308;42.688;23.256;2024-03-22T01:52:44;11.70;;;9.93;;
20298;SDS011;10308;42.688;23.256;2024-03-22T01:55:10;12.52;;;11.23;;
20298;SDS011;10308;42.688;23.256;2024-03-22T01:57:37;11.93;;;10.70;;
20298;SDS011;10308;42.688;23.256;2024-03-22T02:00:06;13.10;;;10.82;;
20298;SDS011;10308;42.688;23.256;2024-03-22T02:05:21;13.57;;;12.15;;
20298;SDS011;10308;42.688;23.256;2024-03-22T02:07:52;14.52;;;12.68;;
20298;SDS011;10308;42.688;23.256;2024-03-22T02:10:18;17.23;;;12.07;;
20298;SDS011;10308;42.688;23.256;2024-03-22T02:12:46;13.68;;;12.27;;
20298;SDS011;10308;42.688;23.256;2024-03-22T02:15:12;14.05;;;11.82;;
20298;SDS011;10308;42.688;23.256;2024-03-22T02:17:41;13.00;;;11.70;;
20298;SDS011;10308;42.688;23.256;2024-03-22T02:20:09;14.07;;;12.57;;
20298;SDS011;10308;42.688;23.256;2024-03-22T02:22:37;13.80;;;12.40;;
20298;SDS011;10308;42.688;23.256;2024-03-22T02:25:08;14.25;;;12.85;;
20298;SDS011;10308;42.688;23.256;2024-03-22T02:27:35;16.83;;;13.07;;
20298;SDS011;10308;42.688;23.256;2024-03-22T02:30:01;14.45;;;12.90;;
20298;SDS011;10308;42.688;23.256;2024-03-22T02:32:29;13.85;;;12.45;;
20298;SDS011;10308;42.688;23.256;2024-03-22T02:34:57;15.13;;;12.57;;
20298;SDS011;10308;42.688;23.256;2024-03-22T02:37:26;15.63;;;13.13;;
20298;SDS011;10308;42.688;23.256;2024-03-22T02:39:55;15.32;;;12.85;;
20298;SDS011;10308;42.688;23.256;2024-03-22T02:42:26;16.52;;;11.63;;
20298;SDS011;10308;42.688;23.256;2024-03-22T02:44:52;14.52;;;12.50;;
20298;SDS011;10308;42.688;23.256;2024-03-22T02:47:22;14.85;;;13.35;;
20298;SDS011;10308;42.688;23.256;2024-03-22T02:49:49;15.05;;;13.40;;
20298;SDS011;10308;42.688;23.256;2024-03-22T02:52:16;13.57;;;12.10;;
20298;SDS011;10308;42.688;23.256;2024-03-22T02:54:43;16.40;;;12.98;;
20298;SDS011;10308;42.688;23.256;2024-03-22T02:57:12;14.23;;;12.82;;
20298;SDS011;10308;42.688;23.256;2024-03-22T02:59:39;16.35;;;12.65;;
20298;SDS011;10308;42.688;23.256;2024-03-22T03:02:07;13.88;;;12.30;;
20298;SDS011;10308;42.688;23.256;2024-03-22T03:04:33;16.13;;;12.88;;
20298;SDS011;10308;42.688;23.256;2024-03-22T03:07:01;14.13;;;12.05;;
20298;SDS011;10308;42.688;23.256;2024-03-22T03:09:28;14.68;;;12.48;;
20298;SDS011;10308;42.688;23.256;2024-03-22T03:11:55;15.57;;;12.43;;
20298;SDS011;10308;42.688;23.256;2024-03-22T03:14:21;15.75;;;13.25;;
20298;SDS011;10308;42.688;23.256;2024-03-22T03:16:50;15.75;;;12.57;;
20298;SDS011;10308;42.688;23.256;2024-03-22T03:19:16;15.80;;;12.63;;
20298;SDS011;10308;42.688;23.256;2024-03-22T03:21:44;14.90;;;12.40;;
20298;SDS011;10308;42.688;23.256;2024-03-22T03:24:10;15.10;;;13.20;;
20298;SDS011;10308;42.688;23.256;2024-03-22T03:26:39;17.85;;;13.82;;
20298;SDS011;10308;42.688;23.256;2024-03-22T03:29:05;30.35;;;20.05;;
20298;SDS011;10308;42.688;23.256;2024-03-22T03:31:32;31.67;;;20.30;;
20298;SDS011;10308;42.688;23.256;2024-03-22T03:33:59;34.47;;;21.15;;
20298;SDS011;10308;42.688;23.256;2024-03-22T03:36:26;31.83;;;21.58;;
20298;SDS011;10308;42.688;23.256;2024-03-22T03:38:52;32.63;;;21.48;;
20298;SDS011;10308;42.688;23.256;2024-03-22T03:41:19;28.75;;;20.77;;
20298;SDS011;10308;42.688;23.256;2024-03-22T03:43:45;28.88;;;20.95;;
20298;SDS011;10308;42.688;23.256;2024-03-22T03:46:12;27.25;;;19.88;;
20298;SDS011;10308;42.688;23.256;2024-03-22T03:48:38;29.70;;;19.27;;
20298;SDS011;10308;42.688;23.256;2024-03-22T03:51:08;32.55;;;20.65;;
20298;SDS011;10308;42.688;23.256;2024-03-22T03:53:35;30.35;;;20.77;;
20298;SDS011;10308;42.688;23.256;2024-03-22T03:56:03;34.70;;;22.15;;
20298;SDS011;10308;42.688;23.256;2024-03-22T03:58:29;29.90;;;20.55;;
20298;SDS011;10308;42.688;23.256;2024-03-22T04:00:59;31.23;;;21.58;;
20298;SDS011;10308;42.688;23.256;2024-03-22T04:03:31;27.90;;;20.10;;
20298;SDS011;10308;42.688;23.256;2024-03-22T04:05:58;26.55;;;19.52;;
20298;SDS011;10308;42.688;23.256;2024-03-22T04:08:26;26.63;;;20.08;;
20298;SDS011;10308;42.688;23.256;2024-03-22T04:10:53;28.70;;;19.38;;
20298;SDS011;10308;42.688;23.256;2024-03-22T04:13:22;33.92;;;21.05;;
20298;SDS011;10308;42.688;23.256;2024-03-22T04:15:50;27.15;;;19.90;;
20298;SDS011;10308;42.688;23.256;2024-03-22T04:18:17;24.45;;;19.02;;
20298;SDS011;10308;42.688;23.256;2024-03-22T04:20:53;23.58;;;18.40;;
20298;SDS011;10308;42.688;23.256;2024-03-22T04:23:20;24.85;;;19.15;;
20298;SDS011;10308;42.688;23.256;2024-03-22T04:25:59;21.67;;;17.33;;
20298;SDS011;10308;42.688;23.256;2024-03-22T04:28:26;23.33;;;17.48;;
20298;SDS011;10308;42.688;23.256;2024-03-22T04:30:56;20.27;;;16.30;;
20298;SDS011;10308;42.688;23.256;2024-03-22T04:33:23;27.98;;;17.13;;
20298;SDS011;10308;42.688;23.256;2024-03-22T04:35:50;22.50;;;14.85;;
20298;SDS011;10308;42.688;23.256;2024-03-22T04:38:16;30.65;;;19.63;;
20298;SDS011;10308;42.688;23.256;2024-03-22T04:40:45;28.42;;;19.08;;
20298;SDS011;10308;42.688;23.256;2024-03-22T04:43:15;29.30;;;21.17;;
20298;SDS011;10308;42.688;23.256;2024-03-22T04:45:43;32.13;;;22.20;;
20298;SDS011;10308;42.688;23.256;2024-03-22T04:48:11;35.03;;;22.85;;
20298;SDS011;10308;42.688;23.256;2024-03-22T04:50:38;31.40;;;22.05;;
20298;SDS011;10308;42.688;23.256;2024-03-22T04:53:05;35.58;;;22.73;;
20298;SDS011;10308;42.688;23.256;2024-03-22T04:55:31;35.47;;;23.58;;
20298;SDS011;10308;42.688;23.256;2024-03-22T04:57:58;36.97;;;25.80;;
20298;SDS011;10308;42.688;23.256;2024-03-22T05:00:27;33.42;;;23.67;;
20298;SDS011;10308;42.688;23.256;2024-03-22T05:02:53;35.75;;;23.15;;
20298;SDS011;10308;42.688;23.256;2024-03-22T05:05:23;37.28;;;24.27;;
20298;SDS011;10308;42.688;23.256;2024-03-22T05:07:49;35.13;;;23.63;;
20298;SDS011;10308;42.688;23.256;2024-03-22T05:10:16;30.92;;;22.88;;
20298;SDS011;10308;42.688;23.256;2024-03-22T05:12:42;32.83;;;22.35;;
20298;SDS011;10308;42.688;23.256;2024-03-22T05:15:09;30.60;;;22.73;;
20298;SDS011;10308;42.688;23.256;2024-03-22T05:17:36;31.20;;;21.65;;
20298;SDS011;10308;42.688;23.256;2024-03-22T05:20:06;31.77;;;19.35;;
20298;SDS011;10308;42.688;23.256;2024-03-22T05:22:36;26.20;;;18.02;;
20298;SDS011;10308;42.688;23.256;2024-03-22T05:25:03;27.77;;;18.67;;
20298;SDS011;10308;42.688;23.256;2024-03-22T05:27:30;38.67;;;24.00;;
20298;SDS011;10308;42.688;23.256;2024-03-22T05:29:57;36.47;;;23.90;;
20298;SDS011;10308;42.688;23.256;2024-03-22T05:32:24;34.67;;;24.27;;
20298;SDS011;10308;42.688;23.256;2024-03-22T05:34:52;35.35;;;23.77;;
20298;SDS011;10308;42.688;23.256;2024-03-22T05:37:18;37.70;;;23.80;;
20298;SDS011;10308;42.688;23.256;2024-03-22T05:39:45;35.90;;;24.80;;
20298;SDS011;10308;42.688;23.256;2024-03-22T05:42:11;35.63;;;24.60;;
20298;SDS011;10308;42.688;23.256;2024-03-22T05:44:38;32.50;;;22.23;;
20298;SDS011;10308;42.688;23.256;2024-03-22T05:47:04;31.67;;;22.42;;
20298;SDS011;10308;42.688;23.256;2024-03-22T05:49:31;31.50;;;21.77;;
20298;SDS011;10308;42.688;23.256;2024-03-22T05:51:58;31.02;;;24.77;;
20298;SDS011;10308;42.688;23.256;2024-03-22T05:54:27;36.65;;;31.42;;
20298;SDS011;10308;42.688;23.256;2024-03-22T05:56:53;48.00;;;42.63;;
20298;SDS011;10308;42.688;23.256;2024-03-22T05:59:21;48.53;;;43.17;;
20298;SDS011;10308;42.688;23.256;2024-03-22T06:01:47;45.75;;;39.25;;
20298;SDS011;10308;42.688;23.256;2024-03-22T06:04:14;43.13;;;37.33;;
20298;SDS011;10308;42.688;23.256;2024-03-22T06:06:40;40.13;;;34.53;;
20298;SDS011;10308;42.688;23.256;2024-03-22T06:09:09;40.58;;;35.90;;
20298;SDS011;10308;42.688;23.256;2024-03-22T06:11:36;55.63;;;43.88;;
20298;SDS011;10308;42.688;23.256;2024-03-22T06:14:06;53.10;;;46.90;;
20298;SDS011;10308;42.688;23.256;2024-03-22T06:16:32;46.55;;;40.83;;
20298;SDS011;10308;42.688;23.256;2024-03-22T06:18:59;43.53;;;38.78;;
20298;SDS011;10308;42.688;23.256;2024-03-22T06:21:25;40.55;;;35.20;;
20298;SDS011;10308;42.688;23.256;2024-03-22T06:23:52;22.55;;;20.25;;
20298;SDS011;10308;42.688;23.256;2024-03-22T06:26:20;18.95;;;16.98;;
20298;SDS011;10308;42.688;23.256;2024-03-22T06:28:47;18.45;;;16.25;;
20298;SDS011;10308;42.688;23.256;2024-03-22T06:31:13;19.92;;;16.00;;
20298;SDS011;10308;42.688;23.256;2024-03-22T06:33:40;19.80;;;14.73;;
20298;SDS011;10308;42.688;23.256;2024-03-22T06:36:07;18.38;;;15.27;;
20298;SDS011;10308;42.688;23.256;2024-03-22T06:38:34;22.52;;;16.80;;
20298;SDS011;10308;42.688;23.256;2024-03-22T06:41:01;20.23;;;16.38;;
20298;SDS011;10308;42.688;23.256;2024-03-22T06:43:28;21.73;;;16.45;;
20298;SDS011;10308;42.688;23.256;2024-03-22T06:45:55;14.90;;;13.30;;
20298;SDS011;10308;42.688;23.256;2024-03-22T06:48:21;15.18;;;13.68;;
20298;SDS011;10308;42.688;23.256;2024-03-22T06:50:49;17.52;;;14.75;;
20298;SDS011;10308;42.688;23.256;2024-03-22T06:53:14;11.85;;;10.57;;
20298;SDS011;10308;42.688;23.256;2024-03-22T06:55:41;13.75;;;11.32;;
20298;SDS011;10308;42.688;23.256;2024-03-22T06:58:07;17.52;;;14.43;;
20298;SDS011;10308;42.688;23.256;2024-03-22T07:00:36;18.67;;;15.05;;
20298;SDS011;10308;42.688;23.256;2024-03-22T07:03:03;20.05;;;15.10;;
20298;SDS011;10308;42.688;23.256;2024-03-22T07:05:31;21.60;;;15.45;;
20298;SDS011;10308;42.688;23.256;2024-03-22T07:07:57;19.50;;;15.63;;
20298;SDS011;10308;42.688;23.256;2024-03-22T07:10:24;20.63;;;16.05;;
20298;SDS011;10308;42.688;23.256;2024-03-22T07:12:53;17.90;;;15.30;;
20298;SDS011;10308;42.688;23.256;2024-03-22T07:15:21;17.88;;;14.57;;
20298;SDS011;10308;42.688;23.256;2024-03-22T07:17:49;18.00;;;14.45;;
20298;SDS011;10308;42.688;23.256;2024-03-22T07:20:17;19.25;;;14.98;;
20298;SDS011;10308;42.688;23.256;2024-03-22T07:22:43;17.33;;;14.77;;
20298;SDS011;10308;42.688;23.256;2024-03-22T07:25:11;18.42;;;16.52;;
20298;SDS011;10308;42.688;23.256;2024-03-22T07:27:37;17.92;;;15.93;;
20298;SDS011;10308;42.688;23.256;2024-03-22T07:30:04;17.23;;;15.52;;
20298;SDS011;10308;42.688;23.256;2024-03-22T07:32:31;20.13;;;14.90;;
20298;SDS011;10308;42.688;23.256;2024-03-22T07:34:59;19.65;;;14.70;;
20298;SDS011;10308;42.688;23.256;2024-03-22T07:37:25;17.35;;;14.50;;
20298;SDS011;10308;42.688;23.256;2024-03-22T07:39:52;18.17;;;14.02;;
20298;SDS011;10308;42.688;23.256;2024-03-22T07:42:19;18.77;;;14.07;;
20298;SDS011;10308;42.688;23.256;2024-03-22T07:44:46;19.77;;;14.52;;
20298;SDS011;10308;42.688;23.256;2024-03-22T07:47:13;14.23;;;11.52;;
20298;SDS011;10308;42.688;23.256;2024-03-22T07:49:44;14.02;;;10.70;;
20298;SDS011;10308;42.688;23.256;2024-03-22T07:52:11;11.35;;;9.88;;
20298;SDS011;10308;42.688;23.256;2024-03-22T07:54:38;12.35;;;9.63;;
20298;SDS011;10308;42.688;23.256;2024-03-22T07:57:04;7.53;;;6.75;;
20298;SDS011;10308;42.688;23.256;2024-03-22T07:59:50;8.50;;;7.38;;
20298;SDS011;10308;42.688;23.256;2024-03-22T08:02:16;7.15;;;6.45;;
20298;SDS011;10308;42.688;23.256;2024-03-22T08:04:43;7.13;;;6.43;;
20298;SDS011;10308;42.688;23.256;2024-03-22T08:07:09;6.85;;;6.15;;
20298;SDS011;10308;42.688;23.256;2024-03-22T08:09:39;8.38;;;6.45;;
20298;SDS011;10308;42.688;23.256;2024-03-22T08:12:06;9.73;;;7.18;;
20298;SDS011;10308;42.688;23.256;2024-03-22T08:14:33;9.15;;;6.78;;
20298;SDS011;10308;42.688;23.256;2024-03-22T08:16:59;8.43;;;6.13;;
20298;SDS011;10308;42.688;23.256;2024-03-22T08:19:26;13.32;;;7.43;;
20298;SDS011;10308;42.688;23.256;2024-03-22T08:21:53;8.23;;;6.45;;
20298;SDS011;10308;42.688;23.256;2024-03-22T08:24:21;7.45;;;6.68;;
20298;SDS011;10308;42.688;23.256;2024-03-22T08:26:47;6.60;;;6.00;;
20298;SDS011;10308;42.688;23.256;2024-03-22T08:29:14;6.45;;;5.85;;
20298;SDS011;10308;42.688;23.256;2024-03-22T08:31:41;6.50;;;5.90;;
20298;SDS011;10308;42.688;23.256;2024-03-22T08:34:08;6.75;;;6.05;;
20298;SDS011;10308;42.688;23.256;2024-03-22T08:36:34;6.03;;;5.43;;
20298;SDS011;10308;42.688;23.256;2024-03-22T08:39:01;6.00;;;5.40;;
20298;SDS011;10308;42.688;23.256;2024-03-22T08:41:29;5.57;;;5.05;;
20298;SDS011;10308;42.688;23.256;2024-03-22T08:43:56;5.82;;;4.78;;
20298;SDS011;10308;42.688;23.256;2024-03-22T08:46:22;6.15;;;5.55;;
20298;SDS011;10308;42.688;23.256;2024-03-22T08:48:51;5.53;;;5.03;;
20298;SDS011;10308;42.688;23.256;2024-03-22T08:51:17;5.78;;;5.28;;
20298;SDS011;10308;42.688;23.256;2024-03-22T08:53:44;5.57;;;4.90;;
20298;SDS011;10308;42.688;23.256;2024-03-22T08:56:10;6.82;;;5.00;;
20298;SDS011;10308;42.688;23.256;2024-03-22T08:58:39;4.90;;;4.40;;
20298;SDS011;10308;42.688;23.256;2024-03-22T09:01:06;5.32;;;4.82;;
20298;SDS011;10308;42.688;23.256;2024-03-22T09:03:35;5.53;;;4.78;;
20298;SDS011;10308;42.688;23.256;2024-03-22T09:06:01;4.40;;;4.00;;
20298;SDS011;10308;42.688;23.256;2024-03-22T09:08:30;4.95;;;4.00;;
20298;SDS011;10308;42.688;23.256;2024-03-22T09:10:58;4.18;;;3.88;;
20298;SDS011;10308;42.688;23.256;2024-03-22T09:13:26;4.40;;;4.00;;
20298;SDS011;10308;42.688;23.256;2024-03-22T09:15:57;4.80;;;4.32;;
20298;SDS011;10308;42.688;23.256;2024-03-22T09:18:30;4.82;;;4.22;;
20298;SDS011;10308;42.688;23.256;2024-03-22T09:20:56;6.78;;;5.00;;
20298;SDS011;10308;42.688;23.256;2024-03-22T09:23:25;4.80;;;4.35;;
20298;SDS011;10308;42.688;23.256;2024-03-22T09:25:51;4.80;;;4.30;;
20298;SDS011;10308;42.688;23.256;2024-03-22T09:28:20;5.93;;;4.28;;
20298;SDS011;10308;42.688;23.256;2024-03-22T09:30:46;4.55;;;4.15;;
20298;SDS011;10308;42.688;23.256;2024-03-22T09:33:15;5.55;;;4.18;;
20298;SDS011;10308;42.688;23.256;2024-03-22T09:35:43;6.10;;;4.30;;
20298;SDS011;10308;42.688;23.256;2024-03-22T09:38:10;4.47;;;4.07;;
20298;SDS011;10308;42.688;23.256;2024-03-22T09:40:37;4.78;;;4.03;;
20298;SDS011;10308;42.688;23.256;2024-03-22T09:43:04;5.30;;;4.05;;
20298;SDS011;10308;42.688;23.256;2024-03-22T09:45:32;4.40;;;4.00;;
20298;SDS011;10308;42.688;23.256;2024-03-22T09:47:59;5.10;;;4.18;;
20298;SDS011;10308;42.688;23.256;2024-03-22T09:50:28;4.70;;;4.30;;
20298;SDS011;10308;42.688;23.256;2024-03-22T09:52:55;4.65;;;4.15;;
20298;SDS011;10308;42.688;23.256;2024-03-22T09:55:22;4.65;;;3.90;;
20298;SDS011;10308;42.688;23.256;2024-03-22T09:57:50;4.50;;;3.90;;
20298;SDS011;10308;42.688;23.256;2024-03-22T10:00:19;4.38;;;3.83;;
20298;SDS011;10308;42.688;23.256;2024-03-22T10:02:47;7.68;;;4.88;;
20298;SDS011;10308;42.688;23.256;2024-03-22T10:05:14;4.47;;;3.60;;
20298;SDS011;10308;42.688;23.256;2024-03-22T10:07:44;4.10;;;3.70;;
20298;SDS011;10308;42.688;23.256;2024-03-22T10:10:12;5.20;;;4.00;;
20298;SDS011;10308;42.688;23.256;2024-03-22T10:12:40;4.07;;;3.72;;
20298;SDS011;10308;42.688;23.256;2024-03-22T10:15:07;4.78;;;4.35;;
20298;SDS011;10308;42.688;23.256;2024-03-22T10:17:35;4.93;;;4.43;;
20298;SDS011;10308;42.688;23.256;2024-03-22T10:20:01;4.20;;;3.47;;
20298;SDS011;10308;42.688;23.256;2024-03-22T10:22:30;4.13;;;3.72;;
20298;SDS011;10308;42.688;23.256;2024-03-22T10:24:57;4.20;;;3.80;;
20298;SDS011;10308;42.688;23.256;2024-03-22T10:27:27;4.22;;;3.72;;
20298;SDS011;10308;42.688;23.256;2024-03-22T10:29:54;3.85;;;3.50;;
20298;SDS011;10308;42.688;23.256;2024-03-22T10:32:23;4.07;;;3.67;;
20298;SDS011;10308;42.688;23.256;2024-03-22T10:34:50;4.32;;;3.92;;
20298;SDS011;10308;42.688;23.256;2024-03-22T10:37:17;5.55;;;3.80;;
20298;SDS011;10308;42.688;23.256;2024-03-22T10:39:43;4.18;;;3.80;;
20298;SDS011;10308;42.688;23.256;2024-03-22T10:42:12;4.00;;;3.58;;
20298;SDS011;10308;42.688;23.256;2024-03-22T10:44:38;3.70;;;3.40;;
20298;SDS011;10308;42.688;23.256;2024-03-22T10:47:07;3.90;;;3.50;;
20298;SDS011;10308;42.688;23.256;2024-03-22T10:49:36;4.30;;;3.90;;
20298;SDS011;10308;42.688;23.256;2024-03-22T10:52:04;6.25;;;4.00;;
20298;SDS011;10308;42.688;23.256;2024-03-22T10:54:33;4.15;;;3.75;;
20298;SDS011;10308;42.688;23.256;2024-03-22T10:57:05;4.43;;;3.90;;
20298;SDS011;10308;42.688;23.256;2024-03-22T10:59:34;4.28;;;3.38;;
20298;SDS011;10308;42.688;23.256;2024-03-22T11:02:05;4.53;;;4.13;;
20298;SDS011;10308;42.688;23.256;2024-03-22T11:04:32;4.55;;;3.45;;
20298;SDS011;10308;42.688;23.256;2024-03-22T11:06:59;3.33;;;3.03;;
20298;SDS011;10308;42.688;23.256;2024-03-22T11:09:26;4.10;;;3.38;;
20298;SDS011;10308;42.688;23.256;2024-03-22T11:11:54;3.78;;;3.33;;
20298;SDS011;10308;42.688;23.256;2024-03-22T11:14:21;3.53;;;3.22;;
20298;SDS011;10308;42.688;23.256;2024-03-22T11:16:51;4.93;;;3.20;;
20298;SDS011;10308;42.688;23.256;2024-03-22T11:19:18;3.83;;;3.25;;
20298;SDS011;10308;42.688;23.256;2024-03-22T11:21:45;3.80;;;3.47;;
20298;SDS011;10308;42.688;23.256;2024-03-22T11:24:11;3.85;;;3.55;;
20298;SDS011;10308;42.688;23.256;2024-03-22T11:26:38;4.57;;;3.53;;
20298;SDS011;10308;42.688;23.256;2024-03-22T11:29:04;7.22;;;3.75;;
20298;SDS011;10308;42.688;23.256;2024-03-22T11:31:32;4.18;;;3.85;;
20298;SDS011;10308;42.688;23.256;2024-03-22T11:34:00;3.85;;;3.45;;
20298;SDS011;10308;42.688;23.256;2024-03-22T11:36:27;3.65;;;3.33;;
20298;SDS011;10308;42.688;23.256;2024-03-22T11:38:53;4.00;;;3.70;;
20298;SDS011;10308;42.688;23.256;2024-03-22T11:41:21;4.05;;;3.60;;
20298;SDS011;10308;42.688;23.256;2024-03-22T11:43:49;4.10;;;3.22;;
20298;SDS011;10308;42.688;23.256;2024-03-22T11:46:17;3.55;;;3.20;;
20298;SDS011;10308;42.688;23.256;2024-03-22T11:48:43;4.47;;;3.47;;
20298;SDS011;10308;42.688;23.256;2024-03-22T11:51:11;5.63;;;3.60;;
20298;SDS011;10308;42.688;23.256;2024-03-22T11:53:37;3.80;;;3.40;;
20298;SDS011;10308;42.688;23.256;2024-03-22T11:56:04;4.13;;;3.60;;
20298;SDS011;10308;42.688;23.256;2024-03-22T11:58:31;4.40;;;3.55;;
20298;SDS011;10308;42.688;23.256;2024-03-22T12:00:57;3.70;;;3.40;;
20298;SDS011;10308;42.688;23.256;2024-03-22T12:03:24;3.83;;;3.35;;
20298;SDS011;10308;42.688;23.256;2024-03-22T12:05:52;5.13;;;3.58;;
20298;SDS011;10308;42.688;23.256;2024-03-22T12:08:21;3.80;;;3.42;;
20298;SDS011;10308;42.688;23.256;2024-03-22T12:10:48;3.95;;;3.55;;
20298;SDS011;10308;42.688;23.256;2024-03-22T12:13:14;3.75;;;3.45;;
20298;SDS011;10308;42.688;23.256;2024-03-22T12:15:42;3.47;;;3.17;;
20298;SDS011;10308;42.688;23.256;2024-03-22T12:18:08;4.20;;;3.40;;
20298;SDS011;10308;42.688;23.256;2024-03-22T12:20:35;3.70;;;3.40;;
20298;SDS011;10308;42.688;23.256;2024-03-22T12:23:01;4.80;;;3.80;;
20298;SDS011;10308;42.688;23.256;2024-03-22T12:25:29;4.10;;;3.63;;
20298;SDS011;10308;42.688;23.256;2024-03-22T12:27:55;3.33;;;3.10;;
20298;SDS011;10308;42.688;23.256;2024-03-22T12:30:23;3.92;;;3.50;;
20298;SDS011;10308;42.688;23.256;2024-03-22T12:32:48;4.55;;;3.70;;
20298;SDS011;10308;42.688;23.256;2024-03-22T12:35:16;3.70;;;3.40;;
20298;SDS011;10308;42.688;23.256;2024-03-22T12:37:42;4.38;;;3.55;;
20298;SDS011;10308;42.688;23.256;2024-03-22T12:40:10;3.88;;;3.50;;
20298;SDS011;10308;42.688;23.256;2024-03-22T12:42:40;3.83;;;3.50;;
20298;SDS011;10308;42.688;23.256;2024-03-22T12:45:08;7.47;;;3.92;;
20298;SDS011;10308;42.688;23.256;2024-03-22T12:47:34;3.60;;;3.30;;
20298;SDS011;10308;42.688;23.256;2024-03-22T12:50:03;3.88;;;3.35;;
20298;SDS011;10308;42.688;23.256;2024-03-22T12:52:31;4.20;;;3.80;;
20298;SDS011;10308;42.688;23.256;2024-03-22T12:54:58;3.65;;;3.20;;
20298;SDS011;10308;42.688;23.256;2024-03-22T12:57:23;4.57;;;3.40;;
20298;SDS011;10308;42.688;23.256;2024-03-22T12:59:52;3.60;;;3.30;;
20298;SDS011;10308;42.688;23.256;2024-03-22T13:02:18;3.60;;;3.30;;
20298;SDS011;10308;42.688;23.256;2024-03-22T13:04:44;3.40;;;3.00;;
20298;SDS011;10308;42.688;23.256;2024-03-22T13:07:11;4.72;;;3.25;;
20298;SDS011;10308;42.688;23.256;2024-03-22T13:09:38;6.43;;;3.50;;
20298;SDS011;10308;42.688;23.256;2024-03-22T13:12:05;4.25;;;3.83;;
20298;SDS011;10308;42.688;23.256;2024-03-22T13:14:33;4.85;;;3.97;;
20298;SDS011;10308;42.688;23.256;2024-03-22T13:17:03;3.50;;;3.20;;
20298;SDS011;10308;42.688;23.256;2024-03-22T13:19:30;5.10;;;3.38;;
20298;SDS011;10308;42.688;23.256;2024-03-22T13:21:56;3.70;;;3.40;;
20298;SDS011;10308;42.688;23.256;2024-03-22T13:24:24;4.88;;;3.55;;
20298;SDS011;10308;42.688;23.256;2024-03-22T13:26:51;3.75;;;3.28;;
20298;SDS011;10308;42.688;23.256;2024-03-22T13:29:18;3.63;;;3.20;;
20298;SDS011;10308;42.688;23.256;2024-03-22T13:31:45;4.20;;;3.10;;
20298;SDS011;10308;42.688;23.256;2024-03-22T13:34:14;3.78;;;3.40;;
20298;SDS011;10308;42.688;23.256;2024-03-22T13:36:41;3.50;;;3.17;;
20298;SDS011;10308;42.688;23.256;2024-03-22T13:39:25;4.05;;;3.65;;
20298;SDS011;10308;42.688;23.256;2024-03-22T13:41:54;3.70;;;3.40;;
20298;SDS011;10308;42.688;23.256;2024-03-22T13:44:20;5.60;;;3.08;;
20298;SDS011;10308;42.688;23.256;2024-03-22T13:46:49;3.67;;;3.30;;
20298;SDS011;10308;42.688;23.256;2024-03-22T13:49:16;4.30;;;3.40;;
20298;SDS011;10308;42.688;23.256;2024-03-22T13:51:46;3.65;;;3.35;;
20298;SDS011;10308;42.688;23.256;2024-03-22T13:54:12;5.68;;;3.85;;
20298;SDS011;10308;42.688;23.256;2024-03-22T13:56:39;4.10;;;3.70;;
20298;SDS011;10308;42.688;23.256;2024-03-22T13:59:07;3.92;;;3.53;;
20298;SDS011;10308;42.688;23.256;2024-03-22T14:01:34;3.72;;;3.42;;
20298;SDS011;10308;42.688;23.256;2024-03-22T14:04:00;3.80;;;3.50;;
20298;SDS011;10308;42.688;23.256;2024-03-22T14:06:29;3.80;;;3.50;;
20298;SDS011;10308;42.688;23.256;2024-03-22T14:08:55;3.63;;;3.33;;
20298;SDS011;10308;42.688;23.256;2024-03-22T14:11:26;5.18;;;3.20;;
20298;SDS011;10308;42.688;23.256;2024-03-22T14:13:52;4.20;;;3.75;;
20298;SDS011;10308;42.688;23.256;2024-03-22T14:16:19;3.72;;;3.42;;
20298;SDS011;10308;42.688;23.256;2024-03-22T14:18:45;5.00;;;4.40;;
20298;SDS011;10308;42.688;23.256;2024-03-22T14:21:13;4.03;;;3.70;;
20298;SDS011;10308;42.688;23.256;2024-03-22T14:23:45;4.18;;;3.78;;
20298;SDS011;10308;42.688;23.256;2024-03-22T14:26:12;4.28;;;3.55;;